Time;durP1;ratioP1;P1;durP2;ratioP2;P2;SDS_P1;SDS_P2;PMS_P1;PMS_P2;Temp;Humidity;BMP_temperature;BMP_pressure;BME280_temperature;BME280_humidity;BME280_pressure;Samples;Min_cycle;Max_cycle;Signal;HPM_P1;HPM_P2
2022/05/19 00:00:03;;;;;;;0.00;0.00;;;18.20;99.90;;;;;;5073459;28;20031;-82
2022/05/19 00:02:29;;;;;;;0.00;0.00;;;18.30;99.90;;;;;;5068745;28;20024;-82
2022/05/19 00:04:55;;;;;;;0.00;0.00;;;18.20;99.90;;;;;;5072292;28;20016;-83
2022/05/19 00:07:22;;;;;;;0.00;0.00;;;18.20;99.90;;;;;;5072861;28;20064;-81
2022/05/19 00:09:49;;;;;;;0.00;0.00;;;18.40;99.90;;;;;;5071587;28;20047;-81
2022/05/19 00:12:19;;;;;;;158.23;73.65;;;18.40;99.90;;;;;;5053982;28;20024;-83
2022/05/19 00:14:48;;;;;;;0.08;0.00;;;18.70;99.90;;;;;;5071805;28;20027;-79
2022/05/19 00:17:15;;;;;;;1.45;0.95;;;18.70;99.90;;;;;;5067689;28;20032;-80
2022/05/19 00:19:41;;;;;;;0.00;0.00;;;18.90;99.90;;;;;;5054313;28;20021;-81
2022/05/19 00:22:07;;;;;;;0.60;0.60;;;18.80;99.90;;;;;;5074022;28;20101;-80
2022/05/19 00:24:34;;;;;;;1.98;1.38;;;18.80;99.90;;;;;;5075147;28;20112;-80
2022/05/19 00:27:00;;;;;;;0.00;0.00;;;18.80;99.90;;;;;;5074019;28;20039;-82
2022/05/19 00:29:27;;;;;;;8.93;2.65;;;18.90;99.90;;;;;;5051927;28;20533;-81
2022/05/19 00:31:55;;;;;;;0.00;0.00;;;18.90;99.90;;;;;;5072209;28;20039;-80
2022/05/19 00:34:21;;;;;;;0.00;0.00;;;18.90;99.90;;;;;;5076875;28;20031;-81
2022/05/19 00:36:47;;;;;;;0.00;0.00;;;18.70;99.90;;;;;;5077953;28;20051;-80
2022/05/19 00:39:13;;;;;;;0.70;0.45;;;18.60;99.90;;;;;;5066721;28;20028;-79
2022/05/19 00:41:46;;;;;;;0.17;0.17;;;18.40;99.90;;;;;;5080169;28;20017;-81
2022/05/19 00:44:12;;;;;;;1.25;0.32;;;18.40;99.90;;;;;;5076896;28;20052;-82
2022/05/19 00:46:50;;;;;;;1.65;0.98;;;18.10;99.90;;;;;;5084236;28;20013;-79
2022/05/19 00:49:21;;;;;;;0.00;0.00;;;18.10;99.90;;;;;;5088120;28;20040;-81
2022/05/19 00:52:00;;;;;;;1.70;1.33;;;18.00;99.90;;;;;;5084585;28;20035;-81
2022/05/19 00:54:35;;;;;;;5.75;5.22;;;17.90;99.90;;;;;;5058601;28;20024;-81
2022/05/19 00:57:16;;;;;;;9.65;4.60;;;18.10;99.90;;;;;;5060587;28;20033;-84
2022/05/19 00:59:54;;;;;;;2.50;1.27;;;18.10;99.90;;;;;;5076394;28;20056;-83
2022/05/19 01:02:25;;;;;;;0.63;0.63;;;18.00;99.90;;;;;;5053649;28;20092;-80
2022/05/19 01:05:00;;;;;;;1.65;1.38;;;18.10;99.90;;;;;;5065464;28;20021;-81
2022/05/19 01:07:41;;;;;;;2.17;0.40;;;18.10;99.90;;;;;;5066531;28;20029;-82
2022/05/19 01:10:07;;;;;;;1.23;1.13;;;18.10;99.90;;;;;;5069511;28;20028;-80
2022/05/19 01:12:34;;;;;;;0.35;0.35;;;18.10;99.90;;;;;;5052639;28;20027;-81
2022/05/19 01:15:04;;;;;;;0.93;0.93;;;18.10;99.90;;;;;;5052050;28;20020;-81
2022/05/19 01:17:34;;;;;;;2.10;1.67;;;18.10;99.90;;;;;;5052018;28;20464;-80
2022/05/19 01:20:07;;;;;;;1.08;1.00;;;18.10;99.90;;;;;;5071830;28;20025;-85
2022/05/19 01:22:52;;;;;;;6.90;6.20;;;18.00;99.90;;;;;;5070140;28;20016;-82
2022/05/19 01:25:39;;;;;;;0.03;0.03;;;18.00;99.90;;;;;;5070125;28;20180;-82
2022/05/19 01:28:06;;;;;;;3.35;2.53;;;18.00;99.90;;;;;;5053228;28;20082;-81
2022/05/19 01:30:32;;;;;;;5.03;0.95;;;18.00;99.90;;;;;;5073245;28;20063;-79
2022/05/19 01:32:59;;;;;;;0.47;0.47;;;18.00;99.90;;;;;;5066378;28;20043;-84
2022/05/19 01:35:25;;;;;;;6.60;3.80;;;18.00;99.90;;;;;;5076200;28;20151;-84
2022/05/19 01:37:52;;;;;;;9.00;3.70;;;18.10;99.90;;;;;;5057937;28;20036;-81
2022/05/19 01:40:45;;;;;;;5.15;3.40;;;18.00;99.90;;;;;;5074156;28;20108;-80
2022/05/19 01:43:33;;;;;;;0.20;0.20;;;17.80;99.90;;;;;;5062522;28;20124;-81
2022/05/19 01:46:10;;;;;;;6.38;2.92;;;17.70;99.90;;;;;;5074400;28;20022;-78
2022/05/19 01:48:50;;;;;;;1.90;1.58;;;17.90;99.90;;;;;;5080718;28;20028;-80
2022/05/19 01:51:21;;;;;;;2.22;2.03;;;17.90;99.90;;;;;;5071695;28;20017;-81
2022/05/19 01:54:16;;;;;;;7.53;3.72;;;17.90;99.90;;;;;;5068921;28;20510;-78
2022/05/19 01:56:48;;;;;;;4.55;3.17;;;18.00;99.90;;;;;;5067938;28;20048;-79
2022/05/19 01:59:17;;;;;;;7.78;3.20;;;18.00;99.90;;;;;;5074731;28;20017;-84
2022/05/19 02:01:52;;;;;;;6.45;4.15;;;18.10;99.90;;;;;;5071614;28;20450;-81
2022/05/19 02:04:37;;;;;;;2.78;1.80;;;18.10;99.90;;;;;;5052392;28;20028;-82
2022/05/19 02:07:07;;;;;;;5.75;3.13;;;18.30;99.90;;;;;;5054696;28;20028;-81
2022/05/19 02:09:57;;;;;;;1.45;1.35;;;18.50;99.90;;;;;;5069722;28;20024;-83
2022/05/19 02:12:24;;;;;;;2.05;0.85;;;18.70;99.90;;;;;;5064308;28;20542;-85
2022/05/19 02:14:57;;;;;;;1.88;1.38;;;18.80;99.90;;;;;;5042382;28;20517;-82
2022/05/19 02:17:26;;;;;;;5.15;3.35;;;18.80;99.90;;;;;;5069607;28;20032;-81
2022/05/19 02:20:06;;;;;;;1.33;1.23;;;18.80;99.90;;;;;;5066726;28;20032;-85
2022/05/19 02:22:44;;;;;;;1.63;1.42;;;18.70;99.90;;;;;;5073256;28;20024;-84
2022/05/19 02:25:27;;;;;;;1.65;1.55;;;19.20;99.90;;;;;;5065844;28;20509;-81
2022/05/19 02:27:59;;;;;;;1.58;1.17;;;20.00;99.90;;;;;;5066108;28;20031;-82
2022/05/19 02:30:29;;;;;;;1.73;0.80;;;20.40;99.90;;;;;;5065500;28;20058;-82
2022/05/19 02:32:56;;;;;;;5.80;3.67;;;20.50;99.90;;;;;;5064012;28;20112;-82
2022/05/19 02:35:23;;;;;;;1.55;1.35;;;20.70;99.90;;;;;;5066601;28;20118;-85
2022/05/19 02:37:51;;;;;;;8.13;3.55;;;20.50;99.90;;;;;;5073687;28;20024;-82
2022/05/19 02:40:23;;;;;;;2.67;1.75;;;20.50;99.90;;;;;;5045631;28;20035;-79
2022/05/19 02:42:49;;;;;;;4.75;2.95;;;20.30;99.90;;;;;;5061205;28;21247;-82
2022/05/19 02:45:18;;;;;;;4.68;2.90;;;19.90;99.90;;;;;;5059299;28;20021;-80
2022/05/19 02:47:44;;;;;;;5.70;3.95;;;19.60;99.90;;;;;;5064346;28;20048;-79
2022/05/19 02:50:11;;;;;;;3.42;1.02;;;19.40;99.90;;;;;;5069887;28;20196;-79
2022/05/19 02:52:38;;;;;;;6.97;5.15;;;19.40;99.90;;;;;;5068918;28;20036;-81
2022/05/19 02:55:05;;;;;;;5.05;3.63;;;19.40;99.90;;;;;;5072453;28;20039;-79
2022/05/19 02:57:32;;;;;;;5.97;3.97;;;19.40;99.90;;;;;;5046376;28;20055;-79
2022/05/19 02:59:58;;;;;;;6.25;4.97;;;19.50;99.90;;;;;;5070393;28;20020;-82
2022/05/19 03:02:34;;;;;;;6.97;4.97;;;19.50;99.90;;;;;;5043027;28;20442;-81
2022/05/19 03:05:00;;;;;;;4.30;3.53;;;20.00;99.90;;;;;;5064434;28;21283;-83
2022/05/19 03:07:30;;;;;;;9.18;3.42;;;20.50;99.90;;;;;;5063060;28;20050;-81
2022/05/19 03:09:56;;;;;;;5.82;3.80;;;21.20;99.90;;;;;;5061917;28;20289;-82
2022/05/19 03:12:25;;;;;;;4.18;2.97;;;21.50;99.90;;;;;;5063491;28;20036;-79
2022/05/19 03:14:54;;;;;;;4.47;2.83;;;21.60;99.90;;;;;;5043185;28;20028;-79
2022/05/19 03:17:21;;;;;;;2.80;2.50;;;21.40;99.90;;;;;;5064310;28;20024;-78
2022/05/19 03:19:47;;;;;;;0.00;0.00;;;21.80;99.90;;;;;;5065168;28;20025;-82
2022/05/19 03:22:13;;;;;;;2.67;1.55;;;22.40;99.90;;;;;;5043855;28;20016;-80
2022/05/19 03:24:46;;;;;;;0.00;0.00;;;23.00;99.90;;;;;;5053127;28;20028;-78
2022/05/19 03:27:13;;;;;;;0.28;0.20;;;23.30;99.90;;;;;;5061293;28;20085;-78
2022/05/19 03:29:40;;;;;;;3.25;2.35;;;23.20;99.90;;;;;;5044922;28;20038;-79
2022/05/19 03:32:06;;;;;;;4.07;1.88;;;23.00;99.90;;;;;;5067574;28;20131;-80
2022/05/19 03:34:36;;;;;;;6.00;3.47;;;22.10;99.90;;;;;;5058071;28;20112;-81
2022/05/19 03:37:04;;;;;;;3.17;1.58;;;21.70;99.90;;;;;;5061704;28;20131;-78
2022/05/19 03:39:31;;;;;;;4.65;1.63;;;21.50;99.90;;;;;;5061773;28;20033;-80
2022/05/19 03:42:13;;;;;;;6.35;3.03;;;21.50;99.90;;;;;;5064660;28;20035;-79
2022/05/19 03:44:51;;;;;;;4.55;2.60;;;21.60;99.90;;;;;;5066922;28;20020;-82
2022/05/19 03:47:19;;;;;;;4.80;3.38;;;21.40;99.90;;;;;;5066237;28;20029;-79
2022/05/19 03:49:45;;;;;;;1.10;1.00;;;21.50;99.90;;;;;;5063220;28;20039;-78
2022/05/19 03:52:11;;;;;;;1.42;1.25;;;21.80;99.90;;;;;;5066632;28;20036;-81
2022/05/19 03:54:42;;;;;;;0.00;0.00;;;22.00;99.90;;;;;;5070541;28;20195;-78
2022/05/19 03:57:13;;;;;;;2.42;1.65;;;22.00;99.90;;;;;;5063826;28;20053;-79
2022/05/19 03:59:51;;;;;;;3.17;2.42;;;22.00;99.90;;;;;;5064002;28;20032;-80
2022/05/19 04:02:17;;;;;;;3.35;1.80;;;22.20;99.90;;;;;;5057605;28;20032;-80
2022/05/19 04:04:44;;;;;;;0.32;0.32;;;21.80;99.90;;;;;;5077319;28;20020;-79
2022/05/19 04:07:13;;;;;;;5.32;2.33;;;21.60;99.90;;;;;;5074984;28;20055;-78
2022/05/19 04:09:39;;;;;;;0.13;0.13;;;21.90;99.90;;;;;;5058578;28;20397;-78
2022/05/19 04:12:06;;;;;;;1.33;0.40;;;22.10;99.90;;;;;;5058442;28;20024;-78
2022/05/19 04:14:33;;;;;;;2.22;2.05;;;22.60;99.90;;;;;;5061281;28;20024;-80
2022/05/19 04:16:59;;;;;;;5.10;1.10;;;23.00;99.90;;;;;;5040775;28;20489;-80
2022/05/19 04:19:25;;;;;;;1.58;1.48;;;23.30;99.90;;;;;;5046053;28;20033;-79
2022/05/19 04:21:51;;;;;;;3.00;1.52;;;23.50;99.90;;;;;;5074472;28;20048;-80
2022/05/19 04:24:24;;;;;;;0.10;0.10;;;23.50;99.90;;;;;;5064227;28;20032;-81
2022/05/19 04:26:50;;;;;;;4.20;2.65;;;23.80;99.90;;;;;;5061320;28;20452;-81
2022/05/19 04:29:16;;;;;;;3.35;2.25;;;23.70;99.90;;;;;;5042323;28;20035;-79
2022/05/19 04:31:42;;;;;;;0.75;0.75;;;23.50;99.90;;;;;;5056701;28;20041;-80
2022/05/19 04:34:08;;;;;;;1.13;1.02;;;23.40;99.90;;;;;;5061824;28;21494;-79
2022/05/19 04:36:34;;;;;;;2.50;1.45;;;23.50;99.90;;;;;;5065028;28;20036;-81
2022/05/19 04:39:00;;;;;;;1.08;0.95;;;23.70;99.90;;;;;;5040776;28;20033;-79
2022/05/19 04:41:27;;;;;;;2.03;0.82;;;24.10;99.90;;;;;;5067078;28;20070;-81
2022/05/19 04:43:53;;;;;;;7.82;1.88;;;24.10;99.90;;;;;;5060011;28;20503;-81
2022/05/19 04:46:19;;;;;;;2.55;1.55;;;24.10;99.90;;;;;;5061413;28;20475;-80
2022/05/19 04:48:45;;;;;;;0.32;0.32;;;24.30;99.90;;;;;;5066082;28;20035;-81
2022/05/19 04:51:12;;;;;;;5.53;1.35;;;24.60;99.90;;;;;;5062044;28;20016;-81
2022/05/19 04:53:39;;;;;;;0.35;0.35;;;25.10;99.90;;;;;;5063280;28;20028;-81
2022/05/19 04:56:05;;;;;;;0.20;0.20;;;24.80;99.90;;;;;;5044720;28;20772;-80
2022/05/19 04:58:31;;;;;;;0.00;0.00;;;24.80;99.90;;;;;;5061565;28;20038;-80
2022/05/19 05:00:57;;;;;;;0.08;0.08;;;24.80;99.90;;;;;;5058827;28;20028;-82
2022/05/19 05:03:24;;;;;;;0.22;0.22;;;25.10;98.70;;;;;;5057796;28;20441;-81
2022/05/19 05:05:50;;;;;;;0.40;0.40;;;25.40;94.70;;;;;;5046882;28;20051;-81
2022/05/19 05:08:16;;;;;;;0.75;0.75;;;25.60;90.30;;;;;;5055038;28;21329;-83
2022/05/19 05:10:42;;;;;;;0.00;0.00;;;25.90;90.00;;;;;;5054430;28;20033;-85
2022/05/19 05:13:11;;;;;;;0.00;0.00;;;26.30;85.30;;;;;;5062637;28;20565;-84
2022/05/19 05:15:38;;;;;;;0.00;0.00;;;26.30;79.30;;;;;;5033030;28;20177;-82
2022/05/19 05:18:09;;;;;;;0.00;0.00;;;26.30;77.00;;;;;;5050358;28;20367;-82
2022/05/19 05:20:38;;;;;;;0.10;0.10;;;26.60;73.40;;;;;;5062389;28;20032;-83
2022/05/19 05:23:05;;;;;;;0.00;0.00;;;26.50;69.60;;;;;;5045240;28;20068;-84
2022/05/19 05:25:33;;;;;;;6.22;3.08;;;26.60;67.60;;;;;;5058502;28;20025;-81
2022/05/19 05:28:04;;;;;;;2.30;2.20;;;26.20;69.80;;;;;;5043982;28;20031;-83
2022/05/19 05:30:30;;;;;;;18.30;15.00;;;26.30;68.90;;;;;;5058721;28;20029;-79
2022/05/19 05:33:03;;;;;;;0.13;0.13;;;26.10;68.90;;;;;;5063774;28;20043;-81
2022/05/19 05:35:30;;;;;;;0.63;0.63;;;26.20;65.00;;;;;;5065797;28;20036;-81
2022/05/19 05:38:00;;;;;;;0.10;0.10;;;26.10;65.50;;;;;;5063948;28;20033;-83
2022/05/19 05:40:26;;;;;;;0.03;0.03;;;25.80;64.60;;;;;;5066590;28;20074;-83
2022/05/19 05:42:55;;;;;;;5.15;3.30;;;25.60;66.50;;;;;;5062290;28;20101;-80
2022/05/19 05:45:24;;;;;;;0.85;0.77;;;25.80;66.80;;;;;;5062732;28;20024;-82
2022/05/19 05:47:53;;;;;;;3.17;1.23;;;26.10;67.20;;;;;;5045597;28;20028;-82
2022/05/19 05:50:19;;;;;;;0.00;0.00;;;25.70;68.10;;;;;;5067749;28;20498;-81
2022/05/19 05:52:45;;;;;;;0.38;0.38;;;25.40;69.50;;;;;;5047063;28;20391;-81
2022/05/19 05:55:17;;;;;;;0.55;0.47;;;25.40;70.00;;;;;;5049299;28;20471;-82
2022/05/19 05:57:54;;;;;;;0.47;0.47;;;25.70;68.20;;;;;;5034755;28;20049;-81
2022/05/19 06:00:24;;;;;;;0.00;0.00;;;25.50;69.00;;;;;;5028954;28;20123;-83
2022/05/19 06:06:32;;;;;;;14.20;3.72;;;25.50;68.40;;;;;;4926604;29;20135;-84
2022/05/19 06:09:04;;;;;;;5.15;2.10;;;25.10;69.30;;;;;;4947998;28;20524;-83
2022/05/19 06:11:30;;;;;;;0.45;0.45;;;25.00;73.20;;;;;;5031208;28;20033;-83
2022/05/19 06:13:57;;;;;;;2.13;1.27;;;25.00;74.30;;;;;;5028810;28;20304;-83
2022/05/19 06:16:23;;;;;;;5.07;0.70;;;25.20;74.30;;;;;;5026119;28;20016;-82
2022/05/19 06:18:49;;;;;;;1.08;0.38;;;25.00;75.30;;;;;;5051814;28;20067;-83
2022/05/19 06:21:16;;;;;;;1.55;0.63;;;25.10;73.40;;;;;;5042561;28;20036;-82
2022/05/19 06:23:42;;;;;;;1.75;1.05;;;25.30;70.80;;;;;;5054085;28;20032;-82
2022/05/19 06:26:08;;;;;;;1.92;1.85;;;25.10;71.00;;;;;;5035485;28;20105;-82
2022/05/19 06:28:34;;;;;;;0.00;0.00;;;25.20;73.30;;;;;;5036258;28;20762;-82
2022/05/19 06:31:01;;;;;;;0.00;0.00;;;25.50;68.50;;;;;;5051044;28;20083;-83
2022/05/19 06:33:29;;;;;;;0.00;0.00;;;25.50;66.60;;;;;;5049257;28;20112;-83
2022/05/19 06:35:58;;;;;;;2.17;1.98;;;25.40;68.90;;;;;;5044492;28;20400;-82
2022/05/19 06:38:25;;;;;;;1.33;1.00;;;25.60;69.60;;;;;;5050367;28;20020;-83
2022/05/19 06:44:01;;;;;;;0.00;0.00;;;25.20;70.80;;;;;;5048534;28;20033;-81
2022/05/19 06:46:27;;;;;;;0.00;0.00;;;25.20;67.70;;;;;;5025638;28;21655;-81
2022/05/19 06:53:28;;;;;;;0.00;0.00;;;25.20;65.70;;;;;;5012550;28;20025;-82
2022/05/19 06:56:16;;;;;;;0.77;0.65;;;25.10;66.40;;;;;;5031584;28;20562;-82
2022/05/19 06:58:42;;;;;;;0.88;0.80;;;25.60;66.10;;;;;;5036625;28;20047;-83
2022/05/19 07:01:08;;;;;;;2.25;1.25;;;25.80;64.80;;;;;;5043529;28;20032;-83
2022/05/19 07:03:40;;;;;;;0.00;0.00;;;25.80;61.70;;;;;;5045792;28;20024;-82
2022/05/19 07:06:06;;;;;;;0.00;0.00;;;25.40;61.10;;;;;;5026251;28;20029;-82
2022/05/19 07:08:48;;;;;;;0.15;0.15;;;25.20;56.20;;;;;;5021825;28;20041;-82
2022/05/19 07:11:26;;;;;;;0.00;0.00;;;25.30;49.70;;;;;;5022430;28;20037;-83
2022/05/19 07:14:19;;;;;;;0.00;0.00;;;25.70;53.30;;;;;;5042918;28;20491;-83
2022/05/19 07:16:48;;;;;;;0.13;0.00;;;26.10;53.40;;;;;;5016282;28;20080;-83
2022/05/19 07:21:59;;;;;;;0.17;0.17;;;25.90;53.80;;;;;;5043755;28;20033;-81
2022/05/19 07:24:37;;;;;;;1.20;1.05;;;25.90;54.50;;;;;;5045843;28;20112;-81
2022/05/19 07:27:03;;;;;;;1.63;0.98;;;25.80;55.50;;;;;;5046500;28;20031;-82
2022/05/19 07:29:35;;;;;;;0.10;0.10;;;25.90;52.00;;;;;;5047248;28;20052;-81
2022/05/19 07:32:18;;;;;;;0.00;0.00;;;26.00;51.70;;;;;;5046045;28;20033;-82
2022/05/19 07:34:48;;;;;;;0.00;0.00;;;26.00;53.90;;;;;;5048441;28;20111;-82
2022/05/19 07:37:24;;;;;;;0.00;0.00;;;25.80;53.10;;;;;;5044207;28;20029;-82
2022/05/19 07:39:54;;;;;;;0.00;0.00;;;25.70;51.20;;;;;;5044155;28;20121;-83
2022/05/19 07:42:20;;;;;;;1.60;0.55;;;25.80;51.60;;;;;;5047535;28;20025;-82
2022/05/19 07:44:47;;;;;;;0.00;0.00;;;25.90;51.20;;;;;;5044516;28;20040;-82
2022/05/19 07:47:16;;;;;;;0.00;0.00;;;26.00;50.30;;;;;;5045814;28;20091;-81
2022/05/19 07:49:43;;;;;;;0.00;0.00;;;25.70;49.20;;;;;;5030428;28;20070;-82
2022/05/19 07:52:10;;;;;;;0.00;0.00;;;25.90;49.70;;;;;;5049233;28;20472;-81
2022/05/19 07:54:37;;;;;;;0.00;0.00;;;26.00;49.60;;;;;;5029332;28;20044;-83
2022/05/19 07:57:11;;;;;;;2.25;1.38;;;26.00;49.90;;;;;;5053615;28;20102;-81
2022/05/19 07:59:37;;;;;;;0.65;0.20;;;25.90;51.00;;;;;;5065364;28;20159;-81
2022/05/19 08:02:06;;;;;;;0.25;0.25;;;25.90;51.00;;;;;;5082092;28;20033;-82
2022/05/19 08:04:32;;;;;;;9.48;2.05;;;26.30;51.90;;;;;;5073139;28;20474;-82
2022/05/19 08:07:01;;;;;;;0.00;0.00;;;26.40;50.30;;;;;;5067879;28;20096;-82
2022/05/19 08:15:36;;;;;;;0.40;0.40;;;26.90;50.70;;;;;;5075057;28;20051;-81
2022/05/19 08:18:09;;;;;;;0.98;0.45;;;26.70;49.60;;;;;;5071718;28;20056;-81
2022/05/19 08:20:39;;;;;;;0.00;0.00;;;26.40;47.10;;;;;;5069423;28;20025;-81
2022/05/19 08:23:12;;;;;;;0.00;0.00;;;26.30;44.70;;;;;;5063939;28;20021;-81
2022/05/19 08:25:39;;;;;;;0.10;0.10;;;26.50;47.70;;;;;;5070397;28;20415;-81
2022/05/19 08:28:06;;;;;;;8.40;3.65;;;26.80;48.10;;;;;;5072152;28;20020;-82
2022/05/19 08:30:32;;;;;;;1.63;1.02;;;26.80;49.40;;;;;;5066365;28;20024;-81
2022/05/19 08:32:58;;;;;;;0.00;0.00;;;26.90;49.20;;;;;;5069679;28;20037;-81
2022/05/19 08:35:25;;;;;;;0.63;0.52;;;27.00;45.60;;;;;;5073422;28;20025;-81
2022/05/19 08:37:53;;;;;;;0.10;0.10;;;27.30;48.10;;;;;;5072255;28;20051;-82
2022/05/19 08:40:20;;;;;;;2.85;0.90;;;27.50;48.20;;;;;;5061450;28;20418;-81
2022/05/19 08:42:56;;;;;;;4.65;0.22;;;27.30;48.50;;;;;;5057865;28;20098;-81
2022/05/19 08:45:34;;;;;;;1.38;0.70;;;26.70;49.20;;;;;;5080786;28;20171;-81
2022/05/19 08:48:19;;;;;;;2.17;0.95;;;26.90;47.70;;;;;;5069157;28;20294;-82
2022/05/19 08:51:14;;;;;;;1.10;0.17;;;26.80;49.00;;;;;;5059461;28;20075;-81
2022/05/19 08:53:44;;;;;;;0.20;0.20;;;26.90;47.20;;;;;;5071490;28;20038;-82
2022/05/19 08:56:31;;;;;;;0.52;0.52;;;27.30;46.80;;;;;;5073962;28;20043;-81
2022/05/19 08:59:28;;;;;;;2.92;0.85;;;27.30;47.40;;;;;;5089013;28;20059;-79
2022/05/19 09:02:02;;;;;;;3.30;0.55;;;27.30;48.80;;;;;;5092720;28;20120;-81
2022/05/19 09:04:59;;;;;;;0.80;0.80;;;27.00;49.00;;;;;;5067804;28;20023;-81
2022/05/19 09:07:56;;;;;;;0.35;0.28;;;27.20;47.40;;;;;;5079597;28;20040;-82
2022/05/19 09:10:52;;;;;;;0.25;0.20;;;27.30;48.20;;;;;;5066487;28;20043;-81
2022/05/19 09:13:51;;;;;;;1.23;1.13;;;27.30;48.30;;;;;;5062016;28;20044;-82
2022/05/19 09:16:24;;;;;;;5.88;2.20;;;27.20;47.60;;;;;;5057682;28;20021;-82
2022/05/19 09:19:22;;;;;;;0.03;0.03;;;26.80;47.90;;;;;;5072275;28;20032;-81
2022/05/19 09:22:00;;;;;;;0.00;0.00;;;26.70;49.50;;;;;;5093438;28;20365;-81
2022/05/19 09:24:30;;;;;;;0.00;0.00;;;26.90;47.80;;;;;;5063991;28;20115;-82
2022/05/19 09:27:01;;;;;;;1.08;0.93;;;27.10;48.40;;;;;;5078219;28;20029;-82
2022/05/19 09:29:37;;;;;;;5.13;1.75;;;27.30;48.50;;;;;;5059310;28;20043;-82
2022/05/19 09:32:45;;;;;;;0.05;0.05;;;27.40;49.70;;;;;;5064661;28;20028;-80
2022/05/19 09:35:34;;;;;;;2.65;1.88;;;27.70;49.40;;;;;;5064197;28;20074;-82
2022/05/19 09:38:34;;;;;;;2.25;1.15;;;27.50;48.60;;;;;;5060657;28;20467;-82
2022/05/19 09:41:08;;;;;;;0.68;0.52;;;27.10;48.70;;;;;;5035299;28;20043;-81
2022/05/19 09:43:48;;;;;;;0.38;0.25;;;27.00;49.10;;;;;;5067957;28;20029;-81
2022/05/19 09:46:16;;;;;;;0.00;0.00;;;27.00;50.10;;;;;;5065712;28;21627;-82
2022/05/19 09:48:51;;;;;;;0.00;0.00;;;26.90;50.30;;;;;;5080442;28;20032;-80
2022/05/19 09:51:23;;;;;;;0.20;0.20;;;27.00;51.10;;;;;;5066902;28;20028;-81
2022/05/19 09:54:02;;;;;;;0.00;0.00;;;26.90;48.70;;;;;;5066591;28;20475;-82
2022/05/19 09:56:37;;;;;;;0.10;0.10;;;27.00;48.40;;;;;;5064487;28;20054;-81
2022/05/19 09:59:12;;;;;;;0.00;0.00;;;27.00;49.40;;;;;;5068634;28;20021;-82
2022/05/19 10:01:45;;;;;;;0.00;0.00;;;27.50;48.70;;;;;;5069206;28;20033;-81
2022/05/19 10:04:29;;;;;;;0.65;0.65;;;27.90;48.30;;;;;;5069885;28;20033;-81
2022/05/19 10:06:57;;;;;;;2.75;2.00;;;28.00;48.50;;;;;;5075737;28;20112;-81
2022/05/19 10:09:34;;;;;;;0.00;0.00;;;28.10;49.40;;;;;;5069086;28;20028;-81
2022/05/19 10:12:28;;;;;;;0.45;0.45;;;27.50;48.90;;;;;;5069335;28;20368;-79
2022/05/19 10:15:30;;;;;;;22.25;2.97;;;27.70;48.30;;;;;;5079798;28;20067;-81
2022/05/19 10:18:31;;;;;;;1.38;1.27;;;27.30;49.20;;;;;;5063935;28;20044;-82
2022/05/19 10:21:41;;;;;;;0.00;0.00;;;27.40;49.20;;;;;;5067901;28;20036;-83
2022/05/19 10:24:47;;;;;;;0.00;0.00;;;27.30;48.90;;;;;;5081562;28;20029;-83
2022/05/19 10:33:44;;;;;;;3.80;3.60;;;26.40;50.40;;;;;;5061036;28;20220;-82
2022/05/19 10:36:23;;;;;;;0.77;0.77;;;26.70;50.70;;;;;;5077294;28;20045;-81
2022/05/19 10:39:15;;;;;;;0.00;0.00;;;26.80;51.00;;;;;;5061413;28;20024;-81
2022/05/19 10:42:10;;;;;;;0.47;0.28;;;26.90;49.40;;;;;;5063663;28;20066;-82
2022/05/19 10:45:15;;;;;;;0.10;0.10;;;27.10;50.20;;;;;;5063743;28;20033;-82
2022/05/19 10:48:03;;;;;;;6.82;3.20;;;26.60;52.40;;;;;;5058593;28;20078;-82
2022/05/19 10:50:38;;;;;;;0.55;0.55;;;26.20;54.00;;;;;;5060498;28;20035;-82
2022/05/19 10:53:23;;;;;;;0.75;0.75;;;26.30;54.30;;;;;;5063380;28;20032;-82
2022/05/19 10:56:12;;;;;;;0.00;0.00;;;26.10;54.80;;;;;;5086336;28;20036;-82
2022/05/19 10:59:09;;;;;;;0.00;0.00;;;25.90;54.60;;;;;;5082593;28;20036;-81
2022/05/19 11:01:39;;;;;;;0.00;0.00;;;26.00;54.40;;;;;;5081553;28;20021;-80
2022/05/19 11:04:08;;;;;;;0.13;0.00;;;26.00;54.60;;;;;;5074704;28;20029;-83
2022/05/19 11:07:08;;;;;;;0.65;0.65;;;25.90;54.70;;;;;;5070943;28;20509;-82
2022/05/19 11:10:00;;;;;;;0.00;0.00;;;26.20;54.40;;;;;;5065853;28;20040;-82
2022/05/19 11:12:58;;;;;;;;;;;;;;;;;;;;;
2022/05/19 11:15:50;;;;;;;0.00;0.00;;;26.00;55.90;;;;;;5066379;28;20084;-81
2022/05/19 11:18:49;;;;;;;0.55;0.55;;;26.30;55.80;;;;;;5086131;28;20039;-81
2022/05/19 11:21:56;;;;;;;0.00;0.00;;;26.10;56.50;;;;;;5082472;28;20424;-81
2022/05/19 11:28:03;;;;;;;0.32;0.32;;;26.40;58.10;;;;;;5064976;28;20157;-81
2022/05/19 11:30:40;;;;;;;0.45;0.30;;;26.20;58.30;;;;;;5052205;28;20056;-81
2022/05/19 11:33:12;;;;;;;0.00;0.00;;;26.30;58.70;;;;;;5067031;28;20020;-82
2022/05/19 11:35:43;;;;;;;0.00;0.00;;;26.30;58.70;;;;;;5063780;28;20041;-81
2022/05/19 11:38:25;;;;;;;0.00;0.00;;;26.10;59.80;;;;;;5067274;28;20036;-82
2022/05/19 11:41:05;;;;;;;0.00;0.00;;;26.00;59.20;;;;;;5064665;28;20020;-80
2022/05/19 11:43:38;;;;;;;0.00;0.00;;;25.60;60.70;;;;;;5062287;28;20075;-81
2022/05/19 11:46:09;;;;;;;1.75;0.75;;;25.50;61.60;;;;;;5065142;28;20361;-81
2022/05/19 11:57:31;;;;;;;0.00;0.00;;;25.30;60.20;;;;;;5055433;28;20074;-81
2022/05/19 12:00:00;;;;;;;0.00;0.00;;;25.20;60.60;;;;;;5054836;28;20482;-82
2022/05/19 12:02:36;;;;;;;0.00;0.00;;;25.30;60.30;;;;;;5067024;28;20025;-82
2022/05/19 12:05:13;;;;;;;0.00;0.00;;;25.10;60.10;;;;;;5067649;28;20435;-82
2022/05/19 12:07:52;;;;;;;0.00;0.00;;;25.20;60.20;;;;;;5068617;28;20111;-82
2022/05/19 12:10:42;;;;;;;;;;;;;;;;;;;;;
2022/05/19 12:13:11;;;;;;;0.00;0.00;;;24.80;62.40;;;;;;5070496;28;20327;-82
2022/05/19 12:15:54;;;;;;;0.00;0.00;;;24.80;62.30;;;;;;5054815;28;20115;-82
2022/05/19 12:18:24;;;;;;;0.00;0.00;;;24.90;62.00;;;;;;5067958;28;20036;-82
2022/05/19 12:21:02;;;;;;;0.00;0.00;;;25.00;62.20;;;;;;5069276;28;20542;-83
2022/05/19 12:23:32;;;;;;;0.00;0.00;;;25.00;63.00;;;;;;5073199;28;20648;-82
2022/05/19 12:26:23;;;;;;;0.00;0.00;;;25.00;62.70;;;;;;5071053;28;20020;-82
2022/05/19 12:29:10;;;;;;;0.00;0.00;;;25.10;62.40;;;;;;5064452;28;20063;-82
2022/05/19 12:31:56;;;;;;;0.00;0.00;;;24.90;63.70;;;;;;5071752;28;20086;-82
2022/05/19 12:34:29;;;;;;;0.00;0.00;;;24.70;64.80;;;;;;5070149;28;20059;-82
2022/05/19 12:37:36;;;;;;;0.00;0.00;;;24.80;65.10;;;;;;5054420;28;20032;-82
2022/05/19 12:40:28;;;;;;;0.00;0.00;;;24.90;65.00;;;;;;5067636;28;20466;-81
2022/05/19 12:43:23;;;;;;;0.52;0.52;;;24.60;65.80;;;;;;5078858;28;20035;-82
2022/05/19 12:45:55;;;;;;;0.00;0.00;;;24.80;66.20;;;;;;5075013;28;20036;-82
2022/05/19 12:48:33;;;;;;;0.10;0.10;;;24.70;65.60;;;;;;5067668;28;20090;-82
2022/05/19 12:51:14;;;;;;;0.85;0.85;;;24.50;66.30;;;;;;5071725;28;20115;-82
2022/05/19 12:56:55;;;;;;;0.00;0.00;;;24.60;67.00;;;;;;5047809;28;20135;-82
2022/05/19 12:59:34;;;;;;;0.00;0.00;;;24.80;65.40;;;;;;5041013;28;20032;-82
2022/05/19 13:02:24;;;;;;;0.40;0.40;;;25.00;64.50;;;;;;5049250;28;20020;-81
2022/05/19 13:05:04;;;;;;;0.00;0.00;;;24.80;64.50;;;;;;5061315;28;20563;-81
2022/05/19 13:07:41;;;;;;;0.40;0.40;;;24.60;65.40;;;;;;5066188;28;20051;-80
2022/05/19 13:10:24;;;;;;;0.00;0.00;;;24.20;68.50;;;;;;5060576;28;20032;-81
2022/05/19 13:13:02;;;;;;;0.00;0.00;;;24.10;68.00;;;;;;5066847;28;20126;-82
2022/05/19 13:16:09;;;;;;;0.00;0.00;;;24.30;66.70;;;;;;5066867;28;20578;-82
2022/05/19 13:18:37;;;;;;;0.17;0.17;;;24.40;66.90;;;;;;5036279;28;20045;-82
2022/05/19 13:21:25;;;;;;;0.00;0.00;;;24.20;66.40;;;;;;5062072;28;20032;-82
2022/05/19 13:23:52;;;;;;;0.00;0.00;;;24.10;66.20;;;;;;5065854;28;20078;-82
2022/05/19 13:26:29;;;;;;;0.00;0.00;;;24.00;67.00;;;;;;5072870;28;20028;-82
2022/05/19 13:32:11;;;;;;;0.00;0.00;;;24.10;66.30;;;;;;5068551;28;20067;-82
2022/05/19 13:34:46;;;;;;;0.00;0.00;;;24.10;67.20;;;;;;5066220;28;20039;-82
2022/05/19 13:37:14;;;;;;;0.00;0.00;;;23.70;67.20;;;;;;5064757;28;20052;-82
2022/05/19 13:39:40;;;;;;;0.00;0.00;;;23.60;66.30;;;;;;5062947;28;20023;-82
2022/05/19 13:42:10;;;;;;;0.00;0.00;;;23.70;66.20;;;;;;5069446;28;20036;-82
2022/05/19 13:44:44;;;;;;;0.00;0.00;;;23.60;67.90;;;;;;5064863;28;20021;-80
2022/05/19 13:47:31;;;;;;;0.00;0.00;;;23.70;67.30;;;;;;5067600;28;20054;-81
2022/05/19 13:50:09;;;;;;;0.00;0.00;;;23.70;67.20;;;;;;5069697;28;20037;-81
2022/05/19 13:52:44;;;;;;;0.00;0.00;;;23.80;66.70;;;;;;5051074;28;20028;-82
2022/05/19 13:55:22;;;;;;;0.75;0.75;;;23.80;67.70;;;;;;5069164;28;20032;-81
2022/05/19 13:57:52;;;;;;;0.00;0.00;;;23.40;67.20;;;;;;5070385;28;20045;-82
2022/05/19 14:00:20;;;;;;;0.00;0.00;;;23.30;67.20;;;;;;5068394;28;20079;-82
2022/05/19 14:02:47;;;;;;;0.00;0.00;;;23.50;62.40;;;;;;5069870;28;20117;-81
2022/05/19 14:05:23;;;;;;;0.00;0.00;;;23.40;60.30;;;;;;5045924;28;20028;-81
2022/05/19 14:07:51;;;;;;;0.00;0.00;;;23.50;58.90;;;;;;5047663;28;20028;-82